AZU4855 SBPF-SBKP
Flight info
| Callsign | AZU4855 |
|---|---|
| Flight time | 1h 5m |
| Altitude | 37000 |
| Route | ISNIL UZ68 DOLDI DCT AKPEN UZ132 EDRAT |
| Aircraft | A20N/M-SDFGHIRWY/LB1 |
Departure
| Time | 2026-04-15 14:07 |
|---|---|
| Airport | Lauro Kurtz Airport (SBPF) |
Arrival
| Time | 2026-04-15 15:13 |
|---|---|
| Airport | Viracopos International Airport (SBKP) |
| Time | Latitude | Longitude | Altitude | Speed | Heading |
|---|---|---|---|---|---|
| 2026-04-15 13:16 | -28.24075 | -52.32761 | 2401 ft | 0 kts | 338° |
| 2026-04-15 13:53 | -28.24077 | -52.32760 | 2400 ft | 1 kts | 338° |
| 2026-04-15 13:53 | -28.24087 | -52.32755 | 2400 ft | 2 kts | 325° |
| 2026-04-15 13:53 | -28.24098 | -52.32743 | 2400 ft | 2 kts | 301° |
| 2026-04-15 13:53 | -28.24103 | -52.32727 | 2400 ft | 2 kts | 278° |
| 2026-04-15 13:54 | -28.24103 | -52.32711 | 2400 ft | 2 kts | 255° |
| 2026-04-15 13:54 | -28.24101 | -52.32703 | 2400 ft | 1 kts | 244° |
| 2026-04-15 13:54 | -28.24099 | -52.32699 | 2400 ft | 0 kts | 247° |
| 2026-04-15 14:02 | -28.24103 | -52.32709 | 2400 ft | 3 kts | 247° |
| 2026-04-15 14:02 | -28.24123 | -52.32737 | 2400 ft | 6 kts | 196° |
| 2026-04-15 14:03 | -28.24176 | -52.32719 | 2400 ft | 9 kts | 158° |
| 2026-04-15 14:03 | -28.24245 | -52.32688 | 2400 ft | 11 kts | 158° |
| 2026-04-15 14:03 | -28.24319 | -52.32655 | 2400 ft | 11 kts | 158° |
| 2026-04-15 14:03 | -28.24371 | -52.32701 | 2400 ft | 12 kts | 249° |
| 2026-04-15 14:04 | -28.24404 | -52.32796 | 2399 ft | 13 kts | 248° |
| 2026-04-15 14:04 | -28.24441 | -52.32902 | 2397 ft | 15 kts | 248° |
| 2026-04-15 14:04 | -28.24483 | -52.33022 | 2394 ft | 17 kts | 248° |
| 2026-04-15 14:04 | -28.24529 | -52.33154 | 2391 ft | 18 kts | 249° |
| 2026-04-15 14:05 | -28.24579 | -52.33297 | 2388 ft | 20 kts | 248° |
| 2026-04-15 14:05 | -28.24632 | -52.33450 | 2385 ft | 20 kts | 249° |
| 2026-04-15 14:05 | -28.24670 | -52.33558 | 2384 ft | 8 kts | 245° |
| 2026-04-15 14:05 | -28.24709 | -52.33601 | 2384 ft | 5 kts | 227° |
| 2026-04-15 14:06 | -28.24701 | -52.33628 | 2384 ft | 2 kts | 22° |
| 2026-04-15 14:06 | -28.24688 | -52.33611 | 2384 ft | 0 kts | 68° |
| 2026-04-15 14:06 | -28.24654 | -52.33512 | 2385 ft | 46 kts | 68° |
| 2026-04-15 14:07 | -28.24447 | -52.32921 | 2397 ft | 113 kts | 68° |
| 2026-04-15 14:07 | -28.24094 | -52.31898 | 2510 ft | 157 kts | 65° |
| 2026-04-15 14:07 | -28.23698 | -52.30750 | 3150 ft | 155 kts | 64° |
| 2026-04-15 14:07 | -28.23203 | -52.29681 | 3665 ft | 158 kts | 49° |
| 2026-04-15 14:08 | -28.22425 | -52.28714 | 4024 ft | 177 kts | 44° |
| 2026-04-15 14:08 | -28.21525 | -52.27656 | 4457 ft | 194 kts | 44° |
| 2026-04-15 14:08 | -28.20543 | -52.26492 | 4804 ft | 218 kts | 44° |
| 2026-04-15 14:08 | -28.19456 | -52.25192 | 5291 ft | 236 kts | 44° |
| 2026-04-15 14:09 | -28.18295 | -52.23793 | 5789 ft | 254 kts | 44° |
| 2026-04-15 14:09 | -28.17049 | -52.22287 | 6441 ft | 266 kts | 44° |
| 2026-04-15 14:09 | -28.15788 | -52.20756 | 7228 ft | 271 kts | 44° |
| 2026-04-15 14:09 | -28.14505 | -52.19200 | 8001 ft | 275 kts | 44° |
| 2026-04-15 14:10 | -28.13190 | -52.17606 | 8752 ft | 280 kts | 44° |
| 2026-04-15 14:10 | -28.11848 | -52.15976 | 9489 ft | 286 kts | 44° |
| 2026-04-15 14:10 | -28.10492 | -52.14332 | 10193 ft | 291 kts | 44° |
| 2026-04-15 14:10 | -28.09093 | -52.12639 | 10689 ft | 304 kts | 44° |
| 2026-04-15 14:11 | -28.07603 | -52.10836 | 11079 ft | 320 kts | 44° |
| 2026-04-15 14:11 | -28.06069 | -52.08978 | 11688 ft | 327 kts | 45° |
| 2026-04-15 14:11 | -28.04517 | -52.07098 | 12379 ft | 330 kts | 45° |
| 2026-04-15 14:11 | -28.02959 | -52.05208 | 13050 ft | 333 kts | 45° |
| 2026-04-15 14:12 | -28.01371 | -52.03289 | 13699 ft | 337 kts | 45° |
| 2026-04-15 14:12 | -27.99768 | -52.01346 | 14356 ft | 339 kts | 45° |
| 2026-04-15 14:12 | -27.98168 | -51.99410 | 15004 ft | 341 kts | 45° |
| 2026-04-15 14:12 | -27.96530 | -51.97429 | 15655 ft | 343 kts | 45° |
| 2026-04-15 14:13 | -27.94920 | -51.95482 | 16284 ft | 344 kts | 45° |
| 2026-04-15 14:13 | -27.93276 | -51.93498 | 16899 ft | 345 kts | 45° |
| 2026-04-15 14:13 | -27.91635 | -51.91518 | 17465 ft | 348 kts | 45° |
| 2026-04-15 14:13 | -27.89977 | -51.89518 | 18019 ft | 351 kts | 45° |
| 2026-04-15 14:14 | -27.88299 | -51.87496 | 18552 ft | 354 kts | 45° |
| 2026-04-15 14:14 | -27.86618 | -51.85470 | 19087 ft | 357 kts | 45° |
| 2026-04-15 14:14 | -27.84902 | -51.83402 | 19627 ft | 360 kts | 44° |
| 2026-04-15 14:14 | -27.83195 | -51.81347 | 20140 ft | 363 kts | 44° |
| 2026-04-15 14:15 | -27.81464 | -51.79265 | 20630 ft | 367 kts | 44° |
| 2026-04-15 14:15 | -27.79702 | -51.77146 | 21112 ft | 371 kts | 44° |
| 2026-04-15 14:15 | -27.77937 | -51.75027 | 21578 ft | 375 kts | 44° |
| 2026-04-15 14:15 | -27.76140 | -51.72867 | 22068 ft | 379 kts | 44° |
| 2026-04-15 14:16 | -27.74323 | -51.70689 | 22538 ft | 382 kts | 44° |
| 2026-04-15 14:16 | -27.72510 | -51.68512 | 23028 ft | 385 kts | 44° |
| 2026-04-15 14:16 | -27.70669 | -51.66305 | 23485 ft | 389 kts | 44° |
| 2026-04-15 14:16 | -27.68801 | -51.64066 | 23931 ft | 392 kts | 44° |
| 2026-04-15 14:17 | -27.66933 | -51.61831 | 24378 ft | 395 kts | 44° |
| 2026-04-15 14:17 | -27.65046 | -51.59570 | 24805 ft | 399 kts | 44° |
| 2026-04-15 14:17 | -27.63131 | -51.57281 | 25218 ft | 403 kts | 44° |
| 2026-04-15 14:17 | -27.61198 | -51.54968 | 25645 ft | 406 kts | 45° |
| 2026-04-15 14:18 | -27.59263 | -51.52655 | 26043 ft | 409 kts | 44° |
| 2026-04-15 14:18 | -27.57303 | -51.50310 | 26442 ft | 412 kts | 44° |
| 2026-04-15 14:18 | -27.55334 | -51.47960 | 26829 ft | 416 kts | 45° |
| 2026-04-15 14:18 | -27.53354 | -51.45597 | 27215 ft | 419 kts | 45° |
| 2026-04-15 14:19 | -27.51347 | -51.43202 | 27581 ft | 422 kts | 45° |
| 2026-04-15 14:19 | -27.49326 | -51.40792 | 27957 ft | 425 kts | 45° |
| 2026-04-15 14:19 | -27.47275 | -51.38348 | 28335 ft | 428 kts | 44° |
| 2026-04-15 14:19 | -27.45242 | -51.35927 | 28688 ft | 431 kts | 44° |
| 2026-04-15 14:20 | -27.43176 | -51.33465 | 29025 ft | 434 kts | 44° |
| 2026-04-15 14:20 | -27.41089 | -51.30985 | 29382 ft | 436 kts | 44° |
| 2026-04-15 14:20 | -27.39018 | -51.28525 | 29741 ft | 438 kts | 44° |
| 2026-04-15 14:20 | -27.36914 | -51.26025 | 30101 ft | 439 kts | 44° |
| 2026-04-15 14:21 | -27.34809 | -51.23529 | 30455 ft | 441 kts | 44° |
| 2026-04-15 14:21 | -27.32694 | -51.21044 | 30794 ft | 442 kts | 43° |
| 2026-04-15 14:21 | -27.30537 | -51.18612 | 31127 ft | 443 kts | 43° |
| 2026-04-15 14:21 | -27.28340 | -51.16166 | 31531 ft | 442 kts | 43° |
| 2026-04-15 14:22 | -27.26165 | -51.13748 | 31955 ft | 441 kts | 43° |
| 2026-04-15 14:22 | -27.23993 | -51.11333 | 32295 ft | 441 kts | 43° |
| 2026-04-15 14:22 | -27.21815 | -51.08902 | 32585 ft | 442 kts | 43° |
| 2026-04-15 14:22 | -27.19649 | -51.06484 | 32883 ft | 443 kts | 43° |
| 2026-04-15 14:23 | -27.17470 | -51.04053 | 33150 ft | 444 kts | 43° |
| 2026-04-15 14:23 | -27.13101 | -50.99180 | 33146 ft | 444 kts | 43° |
| 2026-04-15 14:24 | -27.08713 | -50.94287 | 33159 ft | 444 kts | 43° |
| 2026-04-15 14:24 | -27.04342 | -50.89420 | 33165 ft | 445 kts | 43° |
| 2026-04-15 14:25 | -26.99939 | -50.84528 | 33162 ft | 446 kts | 43° |
| 2026-04-15 14:25 | -26.95540 | -50.79641 | 33163 ft | 445 kts | 43° |
| 2026-04-15 14:26 | -26.91136 | -50.74757 | 33167 ft | 446 kts | 43° |
| 2026-04-15 14:26 | -26.86723 | -50.69867 | 33189 ft | 448 kts | 43° |
| 2026-04-15 14:26 | -26.84507 | -50.67416 | 33440 ft | 450 kts | 43° |
| 2026-04-15 14:27 | -26.82289 | -50.64962 | 33863 ft | 448 kts | 43° |
| 2026-04-15 14:27 | -26.80086 | -50.62529 | 34249 ft | 447 kts | 44° |
| 2026-04-15 14:27 | -26.77879 | -50.60090 | 34587 ft | 446 kts | 44° |
| 2026-04-15 14:27 | -26.75652 | -50.57621 | 34911 ft | 446 kts | 44° |
| 2026-04-15 14:28 | -26.73473 | -50.55204 | 35221 ft | 446 kts | 44° |
| 2026-04-15 14:28 | -26.71273 | -50.52762 | 35495 ft | 446 kts | 44° |
| 2026-04-15 14:28 | -26.69075 | -50.50322 | 35732 ft | 446 kts | 44° |
| 2026-04-15 14:28 | -26.66883 | -50.47892 | 35935 ft | 448 kts | 44° |
| 2026-04-15 14:29 | -26.64645 | -50.45412 | 36138 ft | 449 kts | 45° |
| 2026-04-15 14:29 | -26.62438 | -50.42969 | 36334 ft | 450 kts | 45° |
| 2026-04-15 14:29 | -26.60223 | -50.40519 | 36554 ft | 450 kts | 45° |
| 2026-04-15 14:29 | -26.57994 | -50.38105 | 36793 ft | 449 kts | 43° |
| 2026-04-15 14:30 | -26.55626 | -50.35796 | 36980 ft | 450 kts | 39° |
| 2026-04-15 14:30 | -26.53151 | -50.33657 | 37150 ft | 451 kts | 36° |
| 2026-04-15 14:30 | -26.50595 | -50.31617 | 37164 ft | 451 kts | 35° |
| 2026-04-15 14:31 | -26.45491 | -50.27584 | 37166 ft | 451 kts | 35° |
| 2026-04-15 14:31 | -26.40349 | -50.23523 | 37236 ft | 456 kts | 35° |
| 2026-04-15 14:32 | -26.35140 | -50.19405 | 37481 ft | 459 kts | 36° |
| 2026-04-15 14:32 | -26.32540 | -50.17351 | 37688 ft | 458 kts | 36° |
| 2026-04-15 14:32 | -26.29946 | -50.15302 | 37859 ft | 458 kts | 36° |
| 2026-04-15 14:32 | -26.27357 | -50.13259 | 37997 ft | 458 kts | 36° |
| 2026-04-15 14:33 | -26.24776 | -50.11224 | 38124 ft | 458 kts | 36° |
| 2026-04-15 14:33 | -26.22153 | -50.09155 | 38286 ft | 458 kts | 36° |
| 2026-04-15 14:33 | -26.19546 | -50.07101 | 38441 ft | 458 kts | 37° |
| 2026-04-15 14:33 | -26.16965 | -50.05067 | 38595 ft | 457 kts | 37° |
| 2026-04-15 14:34 | -26.14355 | -50.03013 | 38741 ft | 457 kts | 37° |
| 2026-04-15 14:34 | -26.11796 | -50.00998 | 38874 ft | 457 kts | 37° |
| 2026-04-15 14:34 | -26.09176 | -49.98935 | 39002 ft | 457 kts | 37° |
| 2026-04-15 14:34 | -26.06590 | -49.96902 | 39129 ft | 457 kts | 37° |
| 2026-04-15 14:35 | -26.03986 | -49.94854 | 39171 ft | 456 kts | 37° |
| 2026-04-15 14:35 | -25.98810 | -49.90792 | 39176 ft | 456 kts | 37° |
| 2026-04-15 14:36 | -25.93615 | -49.86721 | 39175 ft | 458 kts | 37° |
| 2026-04-15 14:36 | -25.88410 | -49.82643 | 39175 ft | 458 kts | 37° |
| 2026-04-15 14:37 | -25.83203 | -49.78569 | 39181 ft | 459 kts | 37° |
| 2026-04-15 14:37 | -25.78000 | -49.74502 | 39180 ft | 459 kts | 37° |
| 2026-04-15 14:38 | -25.72785 | -49.70430 | 39184 ft | 459 kts | 37° |
| 2026-04-15 14:38 | -25.67555 | -49.66354 | 39181 ft | 459 kts | 37° |
| 2026-04-15 14:39 | -25.62358 | -49.62308 | 39184 ft | 459 kts | 37° |
| 2026-04-15 14:39 | -25.57139 | -49.58246 | 39181 ft | 459 kts | 38° |
| 2026-04-15 14:40 | -25.51880 | -49.54156 | 39185 ft | 459 kts | 38° |
| 2026-04-15 14:40 | -25.46666 | -49.50108 | 39190 ft | 460 kts | 38° |
| 2026-04-15 14:41 | -25.41425 | -49.46043 | 39198 ft | 460 kts | 38° |
| 2026-04-15 14:41 | -25.36199 | -49.41994 | 39195 ft | 459 kts | 38° |
| 2026-04-15 14:42 | -25.30978 | -49.37957 | 39197 ft | 460 kts | 38° |
| 2026-04-15 14:42 | -25.25729 | -49.33897 | 39197 ft | 460 kts | 37° |
| 2026-04-15 14:43 | -25.20473 | -49.29839 | 39190 ft | 459 kts | 37° |
| 2026-04-15 14:43 | -25.15244 | -49.25805 | 39192 ft | 459 kts | 37° |
| 2026-04-15 14:44 | -25.10015 | -49.21776 | 39187 ft | 459 kts | 37° |
| 2026-04-15 14:44 | -25.04765 | -49.17732 | 39189 ft | 460 kts | 37° |
| 2026-04-15 14:45 | -24.99505 | -49.13688 | 39189 ft | 461 kts | 37° |
| 2026-04-15 14:45 | -24.94269 | -49.09666 | 39182 ft | 458 kts | 37° |
| 2026-04-15 14:46 | -24.89038 | -49.05654 | 39174 ft | 458 kts | 37° |
| 2026-04-15 14:46 | -24.83815 | -49.01653 | 39168 ft | 459 kts | 38° |
| 2026-04-15 14:47 | -24.78561 | -48.97628 | 39155 ft | 458 kts | 37° |
| 2026-04-15 14:47 | -24.73354 | -48.93645 | 39147 ft | 458 kts | 37° |
| 2026-04-15 14:48 | -24.68115 | -48.89642 | 39147 ft | 460 kts | 38° |
| 2026-04-15 14:48 | -24.62866 | -48.85634 | 39154 ft | 459 kts | 37° |
| 2026-04-15 14:49 | -24.57619 | -48.81636 | 39157 ft | 459 kts | 37° |
| 2026-04-15 14:49 | -24.52388 | -48.77651 | 39155 ft | 458 kts | 37° |
| 2026-04-15 14:49 | -24.49712 | -48.75726 | 39004 ft | 463 kts | 35° |
| 2026-04-15 14:50 | -24.46979 | -48.73833 | 38703 ft | 472 kts | 35° |
| 2026-04-15 14:50 | -24.44169 | -48.71897 | 38406 ft | 477 kts | 34° |
| 2026-04-15 14:50 | -24.41341 | -48.69952 | 38113 ft | 479 kts | 34° |
| 2026-04-15 14:50 | -24.38547 | -48.68031 | 37820 ft | 479 kts | 34° |
| 2026-04-15 14:51 | -24.35733 | -48.66096 | 37525 ft | 479 kts | 34° |
| 2026-04-15 14:51 | -24.32885 | -48.64138 | 37229 ft | 479 kts | 33° |
| 2026-04-15 14:51 | -24.30060 | -48.62197 | 36939 ft | 478 kts | 33° |
| 2026-04-15 14:51 | -24.27241 | -48.60260 | 36649 ft | 479 kts | 33° |
| 2026-04-15 14:52 | -24.24440 | -48.58337 | 36361 ft | 480 kts | 33° |
| 2026-04-15 14:52 | -24.21585 | -48.56379 | 36071 ft | 480 kts | 33° |
| 2026-04-15 14:52 | -24.18784 | -48.54458 | 35787 ft | 479 kts | 32° |
| 2026-04-15 14:52 | -24.15971 | -48.52531 | 35477 ft | 481 kts | 32° |
| 2026-04-15 14:53 | -24.13105 | -48.50565 | 34999 ft | 482 kts | 32° |
| 2026-04-15 14:53 | -24.10265 | -48.48617 | 34399 ft | 483 kts | 31° |
| 2026-04-15 14:53 | -24.07438 | -48.46679 | 33718 ft | 483 kts | 30° |
| 2026-04-15 14:53 | -24.04596 | -48.44736 | 33002 ft | 483 kts | 30° |
| 2026-04-15 14:54 | -24.01719 | -48.42771 | 32298 ft | 483 kts | 30° |
| 2026-04-15 14:54 | -23.98868 | -48.40828 | 31563 ft | 484 kts | 30° |
| 2026-04-15 14:54 | -23.96040 | -48.38902 | 30805 ft | 483 kts | 30° |
| 2026-04-15 14:54 | -23.93178 | -48.36949 | 30024 ft | 483 kts | 30° |
| 2026-04-15 14:55 | -23.90345 | -48.35019 | 29226 ft | 482 kts | 30° |
| 2026-04-15 14:55 | -23.87497 | -48.33078 | 28413 ft | 482 kts | 30° |
| 2026-04-15 14:55 | -23.84667 | -48.31147 | 27589 ft | 481 kts | 30° |
| 2026-04-15 14:55 | -23.81908 | -48.29129 | 26771 ft | 481 kts | 33° |
| 2026-04-15 14:56 | -23.79172 | -48.27063 | 26201 ft | 474 kts | 33° |
| 2026-04-15 14:56 | -23.76489 | -48.25026 | 25658 ft | 467 kts | 33° |
| 2026-04-15 14:56 | -23.73837 | -48.23016 | 25118 ft | 461 kts | 33° |
| 2026-04-15 14:56 | -23.71203 | -48.21021 | 24560 ft | 456 kts | 33° |
| 2026-04-15 14:57 | -23.68607 | -48.19058 | 24007 ft | 451 kts | 33° |
| 2026-04-15 14:57 | -23.66063 | -48.17138 | 23472 ft | 447 kts | 34° |
| 2026-04-15 14:57 | -23.63500 | -48.15203 | 22928 ft | 442 kts | 33° |
| 2026-04-15 14:57 | -23.60983 | -48.13306 | 22389 ft | 438 kts | 34° |
| 2026-04-15 14:58 | -23.58496 | -48.11428 | 21856 ft | 434 kts | 34° |
| 2026-04-15 14:58 | -23.56024 | -48.09562 | 21308 ft | 430 kts | 34° |
| 2026-04-15 14:58 | -23.53585 | -48.07722 | 20766 ft | 427 kts | 34° |
| 2026-04-15 14:58 | -23.51177 | -48.05910 | 20221 ft | 424 kts | 33° |
| 2026-04-15 14:59 | -23.48734 | -48.04071 | 19669 ft | 421 kts | 34° |
| 2026-04-15 14:59 | -23.46338 | -48.02266 | 19119 ft | 418 kts | 33° |
| 2026-04-15 14:59 | -23.43962 | -48.00480 | 18573 ft | 414 kts | 34° |
| 2026-04-15 14:59 | -23.41604 | -47.98709 | 18036 ft | 411 kts | 34° |
| 2026-04-15 15:00 | -23.39255 | -47.96944 | 17492 ft | 408 kts | 34° |
| 2026-04-15 15:00 | -23.36949 | -47.95209 | 16959 ft | 405 kts | 33° |
| 2026-04-15 15:00 | -23.34647 | -47.93483 | 16573 ft | 397 kts | 34° |
| 2026-04-15 15:00 | -23.32419 | -47.91810 | 16333 ft | 385 kts | 34° |
| 2026-04-15 15:01 | -23.30236 | -47.90174 | 16139 ft | 373 kts | 34° |
| 2026-04-15 15:01 | -23.28142 | -47.88600 | 15899 ft | 365 kts | 34° |
| 2026-04-15 15:01 | -23.26016 | -47.87006 | 15131 ft | 373 kts | 34° |
| 2026-04-15 15:01 | -23.23889 | -47.85416 | 14433 ft | 379 kts | 34° |
| 2026-04-15 15:02 | -23.21792 | -47.83628 | 13723 ft | 384 kts | 44° |
| 2026-04-15 15:02 | -23.20072 | -47.81405 | 13034 ft | 386 kts | 57° |
| 2026-04-15 15:02 | -23.18749 | -47.78913 | 12409 ft | 387 kts | 62° |
| 2026-04-15 15:02 | -23.17506 | -47.76327 | 11805 ft | 385 kts | 63° |
| 2026-04-15 15:03 | -23.16269 | -47.73737 | 11232 ft | 383 kts | 63° |
| 2026-04-15 15:03 | -23.15057 | -47.71225 | 10898 ft | 373 kts | 63° |
| 2026-04-15 15:03 | -23.13859 | -47.68766 | 10652 ft | 361 kts | 63° |
| 2026-04-15 15:03 | -23.12703 | -47.66404 | 10494 ft | 347 kts | 63° |
| 2026-04-15 15:04 | -23.11590 | -47.64133 | 10343 ft | 334 kts | 63° |
| 2026-04-15 15:04 | -23.10530 | -47.61973 | 10118 ft | 325 kts | 63° |
| 2026-04-15 15:04 | -23.09470 | -47.59810 | 9681 ft | 323 kts | 63° |
| 2026-04-15 15:04 | -23.08426 | -47.57684 | 9326 ft | 319 kts | 63° |
| 2026-04-15 15:05 | -23.07384 | -47.55555 | 8964 ft | 314 kts | 63° |
| 2026-04-15 15:05 | -23.06369 | -47.53484 | 8604 ft | 310 kts | 62° |
| 2026-04-15 15:05 | -23.05357 | -47.51426 | 8247 ft | 306 kts | 62° |
| 2026-04-15 15:05 | -23.04368 | -47.49414 | 7897 ft | 302 kts | 62° |
| 2026-04-15 15:06 | -23.02410 | -47.45434 | 7181 ft | 295 kts | 62° |
| 2026-04-15 15:06 | -23.01452 | -47.43485 | 6825 ft | 292 kts | 62° |
| 2026-04-15 15:06 | -23.00499 | -47.41550 | 6494 ft | 287 kts | 62° |
| 2026-04-15 15:07 | -22.99585 | -47.39692 | 6320 ft | 278 kts | 62° |
| 2026-04-15 15:07 | -22.98688 | -47.37870 | 6146 ft | 268 kts | 62° |
| 2026-04-15 15:07 | -22.97789 | -47.36137 | 5967 ft | 259 kts | 55° |
| 2026-04-15 15:07 | -22.96578 | -47.34724 | 5750 ft | 252 kts | 39° |
| 2026-04-15 15:08 | -22.95225 | -47.33579 | 5535 ft | 243 kts | 38° |
| 2026-04-15 15:08 | -22.93901 | -47.32499 | 5314 ft | 230 kts | 38° |
| 2026-04-15 15:08 | -22.92647 | -47.31472 | 5138 ft | 222 kts | 38° |
| 2026-04-15 15:08 | -22.91468 | -47.30472 | 5093 ft | 208 kts | 48° |
| 2026-04-15 15:09 | -22.90837 | -47.29154 | 5148 ft | 192 kts | 81° |
| 2026-04-15 15:09 | -22.90980 | -47.27753 | 4923 ft | 186 kts | 107° |
| 2026-04-15 15:09 | -22.91520 | -47.26504 | 4685 ft | 181 kts | 119° |
| 2026-04-15 15:09 | -22.92221 | -47.25378 | 4456 ft | 180 kts | 124° |
| 2026-04-15 15:10 | -22.92982 | -47.24296 | 4230 ft | 180 kts | 126° |
| 2026-04-15 15:10 | -22.93745 | -47.23240 | 3999 ft | 175 kts | 126° |
| 2026-04-15 15:10 | -22.94486 | -47.22210 | 3813 ft | 171 kts | 126° |
| 2026-04-15 15:10 | -22.95189 | -47.21227 | 3584 ft | 160 kts | 126° |
| 2026-04-15 15:11 | -22.95856 | -47.20292 | 3368 ft | 155 kts | 125° |
| 2026-04-15 15:11 | -22.96518 | -47.19362 | 3181 ft | 155 kts | 125° |
| 2026-04-15 15:11 | -22.97181 | -47.18433 | 3001 ft | 155 kts | 126° |
| 2026-04-15 15:11 | -22.97830 | -47.17519 | 2817 ft | 154 kts | 126° |
| 2026-04-15 15:12 | -22.98492 | -47.16590 | 2630 ft | 154 kts | 127° |
| 2026-04-15 15:12 | -22.99147 | -47.15673 | 2438 ft | 153 kts | 126° |
| 2026-04-15 15:12 | -22.99794 | -47.14770 | 2234 ft | 152 kts | 126° |
| 2026-04-15 15:12 | -23.00405 | -47.13915 | 2179 ft | 116 kts | 128° |
| 2026-04-15 15:13 | -23.00769 | -47.13410 | 2180 ft | 67 kts | 128° |
| 2026-04-15 15:13 | -23.01011 | -47.13073 | 2180 ft | 48 kts | 128° |
| 2026-04-15 15:13 | -23.01232 | -47.12850 | 2181 ft | 31 kts | 155° |
| 2026-04-15 15:13 | -23.01335 | -47.12800 | 2181 ft | 9 kts | 156° |
| 2026-04-15 15:14 | -23.01395 | -47.12808 | 2181 ft | 9 kts | 232° |
| 2026-04-15 15:14 | -23.01378 | -47.12876 | 2181 ft | 10 kts | 308° |
| 2026-04-15 15:14 | -23.01331 | -47.12942 | 2181 ft | 11 kts | 308° |
| 2026-04-15 15:14 | -23.01279 | -47.13014 | 2180 ft | 12 kts | 307° |
| 2026-04-15 15:15 | -23.01226 | -47.13089 | 2180 ft | 12 kts | 307° |
| 2026-04-15 15:15 | -23.01170 | -47.13166 | 2180 ft | 13 kts | 308° |
| 2026-04-15 15:15 | -23.01112 | -47.13247 | 2180 ft | 13 kts | 307° |
| 2026-04-15 15:15 | -23.01053 | -47.13331 | 2180 ft | 14 kts | 308° |
| 2026-04-15 15:16 | -23.00991 | -47.13418 | 2180 ft | 14 kts | 308° |
| 2026-04-15 15:16 | -23.00927 | -47.13508 | 2180 ft | 15 kts | 308° |
| 2026-04-15 15:16 | -23.00863 | -47.13597 | 2180 ft | 15 kts | 307° |
| 2026-04-15 15:16 | -23.00797 | -47.13689 | 2180 ft | 15 kts | 308° |
| 2026-04-15 15:17 | -23.00734 | -47.13776 | 2179 ft | 13 kts | 306° |
| 2026-04-15 15:17 | -23.00715 | -47.13871 | 2179 ft | 12 kts | 278° |
| 2026-04-15 15:17 | -23.00696 | -47.13962 | 2179 ft | 12 kts | 289° |
| 2026-04-15 15:17 | -23.00656 | -47.14041 | 2179 ft | 11 kts | 304° |
| 2026-04-15 15:18 | -23.00610 | -47.14110 | 2179 ft | 11 kts | 307° |
| 2026-04-15 15:18 | -23.00562 | -47.14176 | 2179 ft | 10 kts | 307° |
| 2026-04-15 15:18 | -23.00516 | -47.14241 | 2179 ft | 10 kts | 307° |
| 2026-04-15 15:18 | -23.00471 | -47.14304 | 2179 ft | 10 kts | 307° |
| 2026-04-15 15:19 | -23.00426 | -47.14366 | 2179 ft | 10 kts | 308° |
| 2026-04-15 15:19 | -23.00383 | -47.14427 | 2179 ft | 10 kts | 307° |
| 2026-04-15 15:19 | -23.00339 | -47.14487 | 2179 ft | 10 kts | 308° |
| 2026-04-15 15:19 | -23.00297 | -47.14546 | 2178 ft | 9 kts | 307° |
| 2026-04-15 15:20 | -23.00258 | -47.14606 | 2178 ft | 9 kts | 285° |
| 2026-04-15 15:20 | -23.00298 | -47.14654 | 2178 ft | 9 kts | 216° |
| 2026-04-15 15:20 | -23.00348 | -47.14696 | 2178 ft | 9 kts | 220° |
| 2026-04-15 15:20 | -23.00395 | -47.14739 | 2178 ft | 8 kts | 223° |
| 2026-04-15 15:21 | -23.00390 | -47.14795 | 2178 ft | 8 kts | 308° |
| 2026-04-15 15:21 | -23.00359 | -47.14838 | 2178 ft | 5 kts | 307° |
| 2026-04-15 15:21 | -23.00347 | -47.14869 | 2178 ft | 3 kts | 238° |
| 2026-04-15 15:21 | -23.00373 | -47.14890 | 2178 ft | 4 kts | 217° |
| 2026-04-15 15:22 | -23.00384 | -47.14900 | 2178 ft | 0 kts | 218° |